Observations for STANSTED AIRPORT, United Kingdom (EGSS)

EGSS 200650Z AUTO 36006KT 6000 NCD 08/07 Q1031  
EGSS 200620Z AUTO 34006KT 3200 BR NCD 06/06 Q1031   
EGSS 200550Z AUTO 35006KT 2700 BR NCD 06/05 Q1031   
EGSS 200520Z AUTO 35005KT 2800 BR NCD 06/05 Q1031   
EGSS 200450Z AUTO 34005KT 1000 R04/P1500 BR VV/// 05/05 Q1031   
EGSS 200420Z AUTO 34008KT 0900 FG SCT001 06/05 Q1031
EGSS 200350Z AUTO 34006KT 3000 BR NCD 06/06 Q1031   
EGSS 200320Z AUTO 33007KT 3400 BR NCD 06/05 Q1031   
EGSS 200250Z AUTO 34007KT 4600 HZ NCD 06/05 Q1031   
EGSS 200220Z AUTO 34007KT 5000 HZ NCD 07/06 Q1031   
EGSS 200150Z AUTO 33006KT 6000 NCD 07/06 Q1031  
EGSS 200120Z AUTO 33006KT 7000 NCD 08/06 Q1031  
EGSS 200050Z AUTO 34003KT 9000 NCD 08/05 Q1031  
EGSS 200020Z AUTO 35004KT 9999 NCD 08/05 Q1031  
EGSS 192350Z AUTO 36004KT 9999 NCD 08/05 Q1031  
EGSS 192320Z AUTO 36003KT 9999 NCD 09/05 Q1031  
EGSS 192250Z AUTO 02005KT 9999 NCD 10/05 Q1031  
EGSS 192220Z AUTO 03005KT 9999 NCD 10/05 Q1031  
EGSS 192150Z AUTO 05008KT 9999 NCD 11/07 Q1031  
EGSS 192120Z AUTO 03004KT 9999 NCD 11/06 Q1031  
EGSS 192050Z AUTO 04006KT 9999 NCD 11/06 Q1031  
EGSS 192020Z AUTO 06008KT 9999 NCD 13/07 Q1031  
EGSS 191950Z AUTO 06008KT 9999 NCD 13/06 Q1030  
EGSS 191920Z AUTO 07006KT 9999 NCD 14/07 Q1030  
EGSS 191850Z AUTO 07007KT 9999 NCD 16/07 Q1030  
EGSS 191820Z AUTO 06007KT 030V100 9999 NCD 18/07 Q1030  
EGSS 191750Z AUTO 07007KT 9999 NCD 19/07 Q1029  
EGSS 191720Z AUTO 07007KT 360V110 9999 NCD 20/07 Q1029  
EGSS 191650Z AUTO 07007KT 030V100 9999 NCD 21/07 Q1029  
EGSS 191620Z AUTO 07007KT 010V110 9999 NCD 21/07 Q1029  
EGSS 191550Z AUTO 07008KT 9999 NCD 22/07 Q1029  
EGSS 191520Z AUTO 07008KT 050V110 9999 NCD 22/07 Q1029  
EGSS 191450Z AUTO 07009KT 9999 NCD 22/07 Q1029  
EGSS 191420Z AUTO 08010KT 050V110 9999 NCD 22/06 Q1029  
EGSS 191350Z AUTO 05009KT 9999 NCD 22/07 Q1029  
EGSS 191320Z AUTO 07010KT 030V100 9999 NCD 22/07 Q1029  
EGSS 191250Z AUTO 06011KT 9999 NCD 21/07 Q1029  
EGSS 191220Z AUTO 08011KT 9999 NCD 21/07 Q1029  
EGSS 191150Z 07009KT 040V100 CAVOK 21/08 Q1029  
EGSS 191120Z AUTO 08009KT 040V100 9999 NCD 20/08 Q1029  
EGSS 191050Z AUTO 04011KT 9999 NCD 19/08 Q1029  
EGSS 191020Z AUTO 04008KT 010V070 9999 NCD 18/09 Q1029  
EGSS 190950Z 06007KT 030V090 CAVOK 17/09 Q1029  
EGSS 190920Z 05007KT CAVOK 16/08 Q1029  
EGSS 190850Z AUTO 05006KT 020V090 9999 NCD 15/08 Q1029  
EGSS 190820Z AUTO 05007KT 020V090 9999 NCD 14/08 Q1029  
EGSS 190750Z AUTO 06008KT 9999 NCD 13/08 Q1028  
EGSS 190720Z AUTO 03007KT 9999 NCD 12/07 Q1028  
EGSS 190650Z AUTO 03006KT 9000 NCD 10/07 Q1028  
EGSS 190620Z AUTO 02004KT 7000 NCD 08/06 Q1028